createdAt,value
2022-11-13T00:00:56.062Z,11.30
2022-11-13T00:03:22.961Z,10.35
2022-11-13T00:05:57.992Z,9.95
2022-11-13T00:08:24.607Z,11.75
2022-11-13T00:10:51.292Z,10.25
2022-11-13T00:13:17.831Z,9.75
2022-11-13T00:15:44.528Z,8.30
2022-11-13T00:18:11.080Z,10.40
2022-11-13T00:20:37.646Z,9.43
2022-11-13T00:23:04.197Z,7.97
2022-11-13T00:25:30.723Z,10.70
2022-11-13T00:27:57.242Z,10.23
2022-11-13T00:30:23.813Z,9.75
2022-11-13T00:32:50.362Z,8.73
2022-11-13T00:35:16.966Z,10.43
2022-11-13T00:37:43.537Z,10.10
2022-11-13T00:40:10.648Z,10.52
2022-11-13T00:42:37.194Z,9.57
2022-11-13T00:45:04.108Z,8.52
2022-11-13T00:47:30.707Z,8.35
2022-11-13T00:49:57.259Z,9.95
2022-11-13T00:52:23.774Z,10.70
2022-11-13T00:54:50.471Z,8.82
2022-11-13T00:57:17.045Z,9.63
2022-11-13T00:59:43.627Z,10.05
2022-11-13T01:02:11.899Z,8.65
2022-11-13T01:04:38.435Z,8.38
2022-11-13T01:07:05.043Z,9.05
2022-11-13T01:09:31.682Z,9.02
2022-11-13T01:11:58.253Z,9.30
2022-11-13T01:14:24.919Z,8.45
2022-11-13T01:16:51.746Z,9.07
2022-11-13T01:19:18.290Z,9.05
2022-11-13T01:21:44.847Z,6.80
2022-11-13T01:24:11.392Z,8.07
2022-11-13T01:26:37.961Z,6.45
2022-11-13T01:29:04.536Z,7.18
2022-11-13T01:31:31.508Z,6.63
2022-11-13T01:33:58.635Z,7.90
2022-11-13T01:36:27.872Z,5.80
2022-11-13T01:38:54.580Z,5.90
2022-11-13T01:41:27.316Z,6.28
2022-11-13T01:43:54.686Z,5.90
2022-11-13T01:46:35.783Z,5.30
2022-11-13T01:49:08.367Z,6.50
2022-11-13T01:51:47.584Z,6.38
2022-11-13T01:54:19.025Z,6.90
2022-11-13T01:56:45.874Z,5.80
2022-11-13T01:59:19.813Z,5.35
2022-11-13T02:01:46.455Z,5.57
2022-11-13T02:04:13.495Z,6.38
2022-11-13T02:06:47.339Z,5.70
2022-11-13T02:09:15.442Z,6.03
2022-11-13T02:11:42.284Z,6.60
2022-11-13T02:14:11.543Z,6.63
2022-11-13T02:16:39.919Z,5.43
2022-11-13T02:19:14.148Z,7.10
2022-11-13T02:22:07.633Z,7.10
2022-11-13T02:24:42.140Z,7.32
2022-11-13T02:27:27.803Z,7.40
2022-11-13T02:29:54.356Z,6.85
2022-11-13T02:32:20.947Z,7.40
2022-11-13T02:34:47.554Z,6.80
2022-11-13T02:37:14.135Z,6.90
2022-11-13T02:39:40.802Z,6.30
2022-11-13T02:42:07.341Z,6.68
2022-11-13T02:44:33.868Z,5.47
2022-11-13T02:47:00.452Z,5.50
2022-11-13T02:49:26.982Z,5.43
2022-11-13T02:51:53.652Z,5.68
2022-11-13T02:54:20.231Z,5.05
2022-11-13T02:56:46.797Z,7.32
2022-11-13T02:59:13.363Z,5.85
2022-11-13T03:01:39.992Z,5.22
2022-11-13T03:04:06.554Z,5.15
2022-11-13T03:06:33.184Z,5.60
2022-11-13T03:08:59.813Z,4.90
2022-11-13T03:11:26.410Z,5.72
2022-11-13T03:13:53.671Z,5.35
2022-11-13T03:16:20.368Z,5.80
2022-11-13T03:18:46.905Z,5.97
2022-11-13T03:21:15.310Z,5.93
2022-11-13T03:23:44.949Z,5.80
2022-11-13T03:26:13.866Z,5.82
2022-11-13T03:28:40.529Z,5.55
2022-11-13T03:31:07.265Z,5.30
2022-11-13T03:33:33.828Z,5.50
2022-11-13T03:36:00.603Z,5.28
2022-11-13T03:38:27.697Z,5.35
2022-11-13T03:40:55.298Z,5.03
2022-11-13T03:43:22.178Z,4.65
2022-11-13T03:45:48.833Z,5.03
2022-11-13T03:48:16.147Z,5.70
2022-11-13T03:50:45.695Z,4.50
2022-11-13T03:53:14.767Z,5.10
2022-11-13T03:55:42.698Z,5.05
2022-11-13T03:58:09.980Z,5.25
2022-11-13T04:00:38.191Z,4.68
2022-11-13T04:03:04.794Z,4.93
2022-11-13T04:05:31.368Z,5.30
2022-11-13T04:07:58.156Z,5.63
2022-11-13T04:10:25.023Z,5.28
2022-11-13T04:12:51.643Z,5.57
2022-11-13T04:15:18.208Z,5.32
2022-11-13T04:17:44.826Z,5.88
2022-11-13T04:20:12.016Z,5.97
2022-11-13T04:22:38.550Z,5.88
2022-11-13T04:25:06.152Z,5.60
2022-11-13T04:27:33.074Z,6.25
2022-11-13T04:29:59.749Z,6.00
2022-11-13T04:32:26.318Z,5.75
2022-11-13T04:34:52.918Z,5.43
2022-11-13T04:37:19.575Z,5.72
2022-11-13T04:39:46.215Z,4.47
2022-11-13T04:42:31.624Z,4.38
2022-11-13T04:47:24.802Z,4.03
2022-11-13T04:49:51.376Z,3.63
2022-11-13T04:52:17.944Z,3.58
2022-11-13T04:54:44.575Z,3.75
2022-11-13T04:57:11.111Z,4.68
2022-11-13T04:59:37.727Z,4.45
2022-11-13T05:02:04.647Z,4.55
2022-11-13T05:04:31.262Z,4.70
2022-11-13T05:06:57.829Z,4.78
2022-11-13T05:09:24.378Z,3.83
2022-11-13T05:11:50.966Z,4.50
2022-11-13T05:14:17.703Z,3.95
2022-11-13T05:16:44.615Z,3.78
2022-11-13T05:19:11.354Z,3.70
2022-11-13T05:21:39.475Z,4.20
2022-11-13T05:24:06.394Z,4.55
2022-11-13T05:26:33.336Z,3.95
2022-11-13T05:29:00.866Z,5.47
2022-11-13T05:31:27.942Z,5.82
2022-11-13T05:33:54.808Z,6.75
2022-11-13T05:36:22.527Z,7.55
2022-11-13T05:38:49.346Z,5.70
2022-11-13T05:41:21.306Z,4.50
2022-11-13T05:43:48.545Z,4.78
2022-11-13T05:46:15.202Z,5.13
2022-11-13T05:48:42.538Z,4.90
2022-11-13T05:51:15.547Z,4.50
2022-11-13T05:53:43.651Z,4.15
2022-11-13T05:56:33.616Z,4.60
2022-11-13T05:59:01.324Z,5.10
2022-11-13T06:01:37.049Z,5.03
2022-11-13T06:04:05.297Z,4.80
2022-11-13T06:06:32.650Z,5.05
2022-11-13T06:09:01.276Z,5.55
2022-11-13T06:11:30.090Z,5.00
2022-11-13T06:13:58.033Z,5.20
2022-11-13T06:16:28.174Z,4.90
2022-11-13T06:18:57.262Z,5.22
2022-11-13T06:21:26.438Z,5.30
2022-11-13T06:23:53.522Z,5.00
2022-11-13T06:26:25.857Z,5.57
2022-11-13T06:28:53.219Z,5.78
2022-11-13T06:31:23.078Z,6.43
2022-11-13T06:33:50.128Z,6.70
2022-11-13T06:36:19.161Z,6.85
2022-11-13T06:38:46.028Z,6.65
2022-11-13T06:41:14.554Z,7.50
2022-11-13T06:43:41.735Z,7.22
2022-11-13T06:46:12.391Z,7.50
2022-11-13T06:48:39.163Z,7.70
2022-11-13T06:51:07.884Z,6.35
2022-11-13T06:53:35.006Z,7.60
2022-11-13T06:56:04.446Z,7.90
2022-11-13T06:58:31.577Z,7.95
2022-11-13T07:00:58.400Z,7.07
2022-11-13T07:03:27.018Z,7.72
2022-11-13T07:05:53.683Z,7.10
2022-11-13T07:08:20.454Z,6.72
2022-11-13T07:10:55.181Z,6.63
2022-11-13T07:13:22.666Z,8.45
2022-11-13T07:15:49.472Z,8.77
2022-11-13T07:18:19.096Z,8.30
2022-11-13T07:20:49.597Z,7.93
2022-11-13T07:23:16.208Z,7.40
2022-11-13T07:25:42.748Z,6.82
2022-11-13T07:28:09.301Z,7.85
2022-11-13T07:30:36.041Z,6.70
2022-11-13T07:33:03.794Z,7.65
2022-11-13T07:35:30.650Z,8.73
2022-11-13T07:37:58.209Z,8.43
2022-11-13T07:40:25.152Z,9.32
2022-11-13T07:43:02.483Z,7.80
2022-11-13T07:45:29.530Z,9.55
2022-11-13T07:48:01.191Z,8.23
2022-11-13T07:50:30.666Z,7.75
2022-11-13T07:53:02.947Z,7.72
2022-11-13T07:55:30.134Z,7.90
2022-11-13T07:58:01.023Z,8.18
2022-11-13T08:00:29.073Z,9.07
2022-11-13T08:02:56.946Z,8.82
2022-11-13T08:05:23.773Z,7.75
2022-11-13T08:07:51.839Z,9.07
2022-11-13T08:10:20.172Z,9.15
2022-11-13T08:12:47.561Z,7.90
2022-11-13T08:15:14.506Z,8.07
2022-11-13T08:17:41.533Z,8.02
2022-11-13T08:20:09.074Z,8.07
2022-11-13T08:22:35.713Z,8.57
2022-11-13T08:25:02.300Z,8.68
2022-11-13T08:27:29.115Z,9.35
2022-11-13T08:29:55.856Z,8.13
2022-11-13T08:32:22.566Z,8.40
2022-11-13T08:34:49.329Z,7.70
2022-11-13T08:37:16.072Z,7.30
2022-11-13T08:39:42.774Z,7.75
2022-11-13T08:42:09.799Z,8.55
2022-11-13T08:44:36.492Z,10.32
2022-11-13T08:47:03.219Z,8.55
2022-11-13T08:49:30.018Z,7.80
2022-11-13T08:51:56.726Z,8.48
2022-11-13T08:54:23.275Z,7.40
2022-11-13T08:56:54.695Z,7.70
2022-11-13T08:59:23.645Z,8.05
2022-11-13T09:01:50.773Z,7.85
2022-11-13T09:04:17.487Z,8.15
2022-11-13T09:06:44.163Z,8.55
2022-11-13T09:09:10.945Z,9.63
2022-11-13T09:11:38.036Z,10.35
2022-11-13T09:14:04.628Z,9.18
2022-11-13T09:16:31.272Z,9.50
2022-11-13T09:18:58.144Z,9.18
2022-11-13T09:21:24.934Z,9.23
2022-11-13T09:23:51.758Z,8.90
2022-11-13T09:26:18.426Z,9.63
2022-11-13T09:28:45.162Z,9.05
2022-11-13T09:31:12.867Z,8.75
2022-11-13T09:33:39.430Z,9.50
2022-11-13T09:36:14.186Z,8.52
2022-11-13T09:38:41.474Z,8.77
2022-11-13T09:41:14.624Z,7.97
2022-11-13T09:43:59.510Z,7.82
2022-11-13T09:46:38.100Z,7.47
2022-11-13T09:49:17.863Z,7.28
2022-11-13T09:51:56.499Z,7.55
2022-11-13T09:54:23.614Z,7.22
2022-11-13T09:57:10.416Z,6.97
2022-11-13T09:59:50.574Z,7.07
2022-11-13T10:02:27.445Z,7.72
2022-11-13T10:05:04.551Z,7.30
2022-11-13T10:07:59.410Z,7.30
2022-11-13T10:10:53.681Z,7.75
2022-11-13T10:16:03.636Z,7.30
2022-11-13T10:18:35.991Z,8.07
2022-11-13T10:21:41.343Z,7.97
2022-11-13T10:26:42.504Z,7.90
2022-11-13T10:29:15.176Z,8.27
2022-11-13T10:31:50.024Z,7.72
2022-11-13T10:34:17.941Z,8.10
2022-11-13T10:37:06.011Z,7.40
2022-11-13T10:39:44.523Z,7.28
2022-11-13T10:42:44.418Z,7.32
2022-11-13T10:45:19.575Z,7.68
2022-11-13T10:50:32.194Z,8.20
2022-11-13T10:52:59.132Z,7.95
2022-11-13T10:55:36.195Z,8.25
2022-11-13T10:58:12.122Z,7.45
2022-11-13T11:00:41.348Z,7.80
2022-11-13T11:03:13.312Z,8.43
2022-11-13T11:05:39.959Z,8.93
2022-11-13T11:08:10.951Z,8.45
2022-11-13T11:11:02.390Z,7.55
2022-11-13T11:13:28.984Z,7.60
2022-11-13T11:16:01.876Z,6.93
2022-11-13T11:18:45.606Z,7.53
2022-11-13T11:21:28.657Z,7.25
2022-11-13T11:24:06.559Z,7.60
2022-11-13T11:26:33.345Z,7.22
2022-11-13T11:29:21.568Z,7.25
2022-11-13T11:32:23.196Z,6.88
2022-11-13T11:34:59.385Z,5.93
2022-11-13T11:37:40.895Z,6.28
2022-11-13T11:40:13.475Z,5.65
2022-11-13T11:42:48.686Z,5.80
2022-11-13T11:47:48.311Z,6.18
2022-11-13T11:50:18.442Z,6.40
2022-11-13T11:52:59.536Z,5.60
2022-11-13T11:55:54.335Z,5.20
2022-11-13T11:58:23.899Z,5.13
2022-11-13T12:00:53.430Z,5.03
2022-11-13T12:03:58.943Z,5.07
2022-11-13T12:06:53.530Z,5.20
2022-11-13T12:09:36.680Z,5.30
2022-11-13T12:12:44.291Z,5.78
2022-11-13T12:15:17.131Z,6.10
2022-11-13T12:18:02.950Z,5.82
2022-11-13T12:21:01.631Z,5.30
2022-11-13T12:23:46.649Z,5.50
2022-11-13T12:26:37.118Z,5.80
2022-11-13T12:29:22.011Z,5.30
2022-11-13T12:32:22.801Z,4.55
2022-11-13T12:34:56.536Z,5.15
2022-11-13T12:37:33.715Z,4.60
2022-11-13T12:40:29.991Z,4.00
2022-11-13T12:43:28.657Z,4.80
2022-11-13T12:46:04.216Z,4.30
2022-11-13T12:48:41.062Z,4.60
2022-11-13T12:51:13.853Z,4.32
2022-11-13T12:54:04.102Z,4.35
2022-11-13T12:56:33.556Z,4.45
2022-11-13T12:59:29.279Z,4.20
2022-11-13T13:02:08.080Z,4.22
2022-11-13T13:05:00.859Z,3.95
2022-11-13T13:08:03.612Z,4.50
2022-11-13T13:10:59.903Z,3.85
2022-11-13T13:13:42.431Z,3.60
2022-11-13T13:16:10.454Z,3.30
2022-11-13T13:18:38.989Z,3.60
2022-11-13T13:21:15.279Z,3.60
2022-11-13T13:23:46.235Z,3.67
2022-11-13T13:26:20.394Z,4.20
2022-11-13T13:29:02.590Z,3.60
2022-11-13T13:32:19.313Z,3.83
2022-11-13T13:35:25.500Z,3.58
2022-11-13T13:38:03.842Z,3.85
2022-11-13T13:40:35.844Z,4.25
2022-11-13T13:43:09.510Z,3.85
2022-11-13T13:45:58.179Z,3.78
2022-11-13T13:48:28.243Z,3.63
2022-11-13T13:50:56.767Z,3.70
2022-11-13T13:53:30.383Z,3.50
2022-11-13T13:55:58.399Z,3.58
2022-11-13T13:58:36.438Z,4.00
2022-11-13T14:01:18.991Z,4.18
2022-11-13T14:03:46.526Z,3.65
2022-11-13T14:06:21.788Z,4.05
